sensor_id;sensor_type;location;lat;lon;timestamp;P1;durP1;ratioP1;P2;durP2;ratioP2
8007;SDS011;4049;49.468;11.200;2024-01-30T00:01:02;8.63;;;6.03;;
8007;SDS011;4049;49.468;11.200;2024-01-30T00:03:29;9.67;;;5.83;;
8007;SDS011;4049;49.468;11.200;2024-01-30T00:05:56;8.60;;;5.70;;
8007;SDS011;4049;49.468;11.200;2024-01-30T00:08:22;11.30;;;6.30;;
8007;SDS011;4049;49.468;11.200;2024-01-30T00:10:51;7.87;;;5.30;;
8007;SDS011;4049;49.468;11.200;2024-01-30T00:13:17;8.37;;;5.50;;
8007;SDS011;4049;49.468;11.200;2024-01-30T00:15:45;7.43;;;5.23;;
8007;SDS011;4049;49.468;11.200;2024-01-30T00:18:12;12.97;;;5.80;;
8007;SDS011;4049;49.468;11.200;2024-01-30T00:20:39;8.00;;;5.30;;
8007;SDS011;4049;49.468;11.200;2024-01-30T00:23:05;9.90;;;5.33;;
8007;SDS011;4049;49.468;11.200;2024-01-30T00:25:32;10.40;;;5.87;;
8007;SDS011;4049;49.468;11.200;2024-01-30T00:28:01;9.97;;;5.20;;
8007;SDS011;4049;49.468;11.200;2024-01-30T00:30:28;11.60;;;5.40;;
8007;SDS011;4049;49.468;11.200;2024-01-30T00:32:54;8.47;;;5.00;;
8007;SDS011;4049;49.468;11.200;2024-01-30T00:35:21;8.70;;;5.27;;
8007;SDS011;4049;49.468;11.200;2024-01-30T00:37:48;7.53;;;4.67;;
8007;SDS011;4049;49.468;11.200;2024-01-30T00:40:15;8.10;;;5.37;;
8007;SDS011;4049;49.468;11.200;2024-01-30T00:42:43;7.77;;;4.93;;
8007;SDS011;4049;49.468;11.200;2024-01-30T00:45:13;8.70;;;4.80;;
8007;SDS011;4049;49.468;11.200;2024-01-30T00:47:40;9.13;;;5.27;;
8007;SDS011;4049;49.468;11.200;2024-01-30T00:50:07;7.93;;;4.93;;
8007;SDS011;4049;49.468;11.200;2024-01-30T00:52:34;8.10;;;5.10;;
8007;SDS011;4049;49.468;11.200;2024-01-30T00:55:01;7.53;;;4.73;;
8007;SDS011;4049;49.468;11.200;2024-01-30T00:57:28;7.87;;;5.03;;
8007;SDS011;4049;49.468;11.200;2024-01-30T00:59:55;10.37;;;5.33;;
8007;SDS011;4049;49.468;11.200;2024-01-30T01:02:24;9.30;;;5.67;;
8007;SDS011;4049;49.468;11.200;2024-01-30T01:04:51;11.43;;;5.27;;
8007;SDS011;4049;49.468;11.200;2024-01-30T01:07:17;9.03;;;5.77;;
8007;SDS011;4049;49.468;11.200;2024-01-30T01:09:44;8.80;;;5.90;;
8007;SDS011;4049;49.468;11.200;2024-01-30T01:12:11;8.70;;;5.40;;
8007;SDS011;4049;49.468;11.200;2024-01-30T01:14:38;8.47;;;5.30;;
8007;SDS011;4049;49.468;11.200;2024-01-30T01:17:05;9.90;;;5.37;;
8007;SDS011;4049;49.468;11.200;2024-01-30T01:19:33;8.83;;;5.67;;
8007;SDS011;4049;49.468;11.200;2024-01-30T01:22:00;9.37;;;5.83;;
8007;SDS011;4049;49.468;11.200;2024-01-30T01:24:28;11.40;;;5.63;;
8007;SDS011;4049;49.468;11.200;2024-01-30T01:26:55;11.70;;;6.67;;
8007;SDS011;4049;49.468;11.200;2024-01-30T01:29:22;13.17;;;6.93;;
8007;SDS011;4049;49.468;11.200;2024-01-30T01:31:53;12.83;;;6.80;;
8007;SDS011;4049;49.468;11.200;2024-01-30T01:34:21;13.80;;;6.57;;
8007;SDS011;4049;49.468;11.200;2024-01-30T01:36:50;11.37;;;6.00;;
8007;SDS011;4049;49.468;11.200;2024-01-30T01:39:20;10.63;;;6.03;;
8007;SDS011;4049;49.468;11.200;2024-01-30T01:41:48;12.80;;;6.40;;
8007;SDS011;4049;49.468;11.200;2024-01-30T01:44:14;11.53;;;6.13;;
8007;SDS011;4049;49.468;11.200;2024-01-30T01:46:41;15.30;;;6.30;;
8007;SDS011;4049;49.468;11.200;2024-01-30T01:49:09;12.87;;;6.00;;
8007;SDS011;4049;49.468;11.200;2024-01-30T01:51:36;11.63;;;6.33;;
8007;SDS011;4049;49.468;11.200;2024-01-30T01:54:07;10.73;;;6.07;;
8007;SDS011;4049;49.468;11.200;2024-01-30T01:56:35;11.90;;;6.30;;
8007;SDS011;4049;49.468;11.200;2024-01-30T01:59:04;16.07;;;6.60;;
8007;SDS011;4049;49.468;11.200;2024-01-30T02:01:32;11.50;;;6.10;;
8007;SDS011;4049;49.468;11.200;2024-01-30T02:04:00;12.70;;;5.90;;
8007;SDS011;4049;49.468;11.200;2024-01-30T02:06:27;9.07;;;5.80;;
8007;SDS011;4049;49.468;11.200;2024-01-30T02:08:54;8.80;;;5.53;;
8007;SDS011;4049;49.468;11.200;2024-01-30T02:11:22;11.43;;;5.63;;
8007;SDS011;4049;49.468;11.200;2024-01-30T02:13:49;12.00;;;5.50;;
8007;SDS011;4049;49.468;11.200;2024-01-30T02:16:16;7.97;;;5.30;;
8007;SDS011;4049;49.468;11.200;2024-01-30T02:18:43;9.70;;;5.57;;
8007;SDS011;4049;49.468;11.200;2024-01-30T02:21:14;9.23;;;5.20;;
8007;SDS011;4049;49.468;11.200;2024-01-30T02:23:42;11.73;;;6.00;;
8007;SDS011;4049;49.468;11.200;2024-01-30T02:26:10;12.03;;;6.17;;
8007;SDS011;4049;49.468;11.200;2024-01-30T02:28:37;10.80;;;5.60;;
8007;SDS011;4049;49.468;11.200;2024-01-30T02:31:04;12.47;;;5.93;;
8007;SDS011;4049;49.468;11.200;2024-01-30T02:33:31;8.53;;;5.63;;
8007;SDS011;4049;49.468;11.200;2024-01-30T02:35:58;11.90;;;5.77;;
8007;SDS011;4049;49.468;11.200;2024-01-30T02:38:26;8.40;;;5.17;;
8007;SDS011;4049;49.468;11.200;2024-01-30T02:40:54;9.33;;;4.97;;
8007;SDS011;4049;49.468;11.200;2024-01-30T02:43:21;9.77;;;5.60;;
8007;SDS011;4049;49.468;11.200;2024-01-30T02:45:49;13.17;;;5.90;;
8007;SDS011;4049;49.468;11.200;2024-01-30T02:48:16;13.30;;;6.73;;
8007;SDS011;4049;49.468;11.200;2024-01-30T02:50:42;11.20;;;6.87;;
8007;SDS011;4049;49.468;11.200;2024-01-30T02:53:11;12.40;;;6.37;;
8007;SDS011;4049;49.468;11.200;2024-01-30T02:55:39;16.43;;;6.10;;
8007;SDS011;4049;49.468;11.200;2024-01-30T02:58:06;13.87;;;6.73;;
8007;SDS011;4049;49.468;11.200;2024-01-30T03:00:32;12.73;;;5.77;;
8007;SDS011;4049;49.468;11.200;2024-01-30T03:03:00;14.27;;;7.03;;
8007;SDS011;4049;49.468;11.200;2024-01-30T03:05:27;13.80;;;5.67;;
8007;SDS011;4049;49.468;11.200;2024-01-30T03:07:59;9.87;;;5.07;;
8007;SDS011;4049;49.468;11.200;2024-01-30T03:10:26;10.87;;;5.47;;
8007;SDS011;4049;49.468;11.200;2024-01-30T03:12:54;9.73;;;6.03;;
8007;SDS011;4049;49.468;11.200;2024-01-30T03:15:21;11.07;;;5.93;;
8007;SDS011;4049;49.468;11.200;2024-01-30T03:17:49;9.70;;;5.47;;
8007;SDS011;4049;49.468;11.200;2024-01-30T03:20:16;12.80;;;5.70;;
8007;SDS011;4049;49.468;11.200;2024-01-30T03:22:43;11.33;;;5.37;;
8007;SDS011;4049;49.468;11.200;2024-01-30T03:25:10;8.70;;;5.50;;
8007;SDS011;4049;49.468;11.200;2024-01-30T03:27:37;9.73;;;5.17;;
8007;SDS011;4049;49.468;11.200;2024-01-30T03:30:06;9.53;;;5.57;;
8007;SDS011;4049;49.468;11.200;2024-01-30T03:32:33;11.97;;;5.73;;
8007;SDS011;4049;49.468;11.200;2024-01-30T03:35:00;10.57;;;5.07;;
8007;SDS011;4049;49.468;11.200;2024-01-30T03:37:27;8.07;;;4.53;;
8007;SDS011;4049;49.468;11.200;2024-01-30T03:39:54;8.67;;;4.93;;
8007;SDS011;4049;49.468;11.200;2024-01-30T03:42:21;8.83;;;4.83;;
8007;SDS011;4049;49.468;11.200;2024-01-30T03:44:48;10.67;;;5.10;;
8007;SDS011;4049;49.468;11.200;2024-01-30T03:47:18;5.97;;;5.00;;
8007;SDS011;4049;49.468;11.200;2024-01-30T03:49:45;7.07;;;4.53;;
8007;SDS011;4049;49.468;11.200;2024-01-30T03:52:12;9.13;;;5.27;;
8007;SDS011;4049;49.468;11.200;2024-01-30T03:54:39;7.90;;;4.40;;
8007;SDS011;4049;49.468;11.200;2024-01-30T03:57:06;8.10;;;4.57;;
8007;SDS011;4049;49.468;11.200;2024-01-30T03:59:33;10.57;;;5.20;;
8007;SDS011;4049;49.468;11.200;2024-01-30T04:02:00;9.73;;;5.07;;
8007;SDS011;4049;49.468;11.200;2024-01-30T04:04:28;6.70;;;4.70;;
8007;SDS011;4049;49.468;11.200;2024-01-30T04:06:55;10.20;;;4.93;;
8007;SDS011;4049;49.468;11.200;2024-01-30T04:09:21;8.13;;;5.20;;
8007;SDS011;4049;49.468;11.200;2024-01-30T04:11:49;9.63;;;4.97;;
8007;SDS011;4049;49.468;11.200;2024-01-30T04:14:16;7.70;;;4.37;;
8007;SDS011;4049;49.468;11.200;2024-01-30T04:16:42;8.53;;;4.67;;
8007;SDS011;4049;49.468;11.200;2024-01-30T04:19:09;13.60;;;5.40;;
8007;SDS011;4049;49.468;11.200;2024-01-30T04:21:37;7.47;;;4.70;;
8007;SDS011;4049;49.468;11.200;2024-01-30T04:24:05;10.07;;;5.57;;
8007;SDS011;4049;49.468;11.200;2024-01-30T04:26:31;11.20;;;5.30;;
8007;SDS011;4049;49.468;11.200;2024-01-30T04:28:58;10.27;;;4.80;;
8007;SDS011;4049;49.468;11.200;2024-01-30T04:31:25;10.40;;;5.23;;
8007;SDS011;4049;49.468;11.200;2024-01-30T04:33:52;9.77;;;4.80;;
8007;SDS011;4049;49.468;11.200;2024-01-30T04:36:19;7.07;;;4.43;;
8007;SDS011;4049;49.468;11.200;2024-01-30T04:38:47;10.00;;;4.77;;
8007;SDS011;4049;49.468;11.200;2024-01-30T04:41:14;9.93;;;4.83;;
8007;SDS011;4049;49.468;11.200;2024-01-30T04:43:40;9.53;;;4.83;;
8007;SDS011;4049;49.468;11.200;2024-01-30T04:46:07;10.20;;;5.30;;
8007;SDS011;4049;49.468;11.200;2024-01-30T04:48:34;8.97;;;5.20;;
8007;SDS011;4049;49.468;11.200;2024-01-30T04:51:01;6.30;;;4.33;;
8007;SDS011;4049;49.468;11.200;2024-01-30T04:53:29;11.80;;;5.17;;
8007;SDS011;4049;49.468;11.200;2024-01-30T04:55:57;6.10;;;4.73;;
8007;SDS011;4049;49.468;11.200;2024-01-30T04:58:24;8.17;;;4.90;;
8007;SDS011;4049;49.468;11.200;2024-01-30T05:00:51;6.63;;;4.40;;
8007;SDS011;4049;49.468;11.200;2024-01-30T05:03:18;8.13;;;5.40;;
8007;SDS011;4049;49.468;11.200;2024-01-30T05:05:47;9.53;;;4.80;;
8007;SDS011;4049;49.468;11.200;2024-01-30T05:08:14;7.73;;;4.80;;
8007;SDS011;4049;49.468;11.200;2024-01-30T05:10:41;8.73;;;4.63;;
8007;SDS011;4049;49.468;11.200;2024-01-30T05:13:09;7.70;;;4.60;;
8007;SDS011;4049;49.468;11.200;2024-01-30T05:15:38;12.27;;;5.23;;
8007;SDS011;4049;49.468;11.200;2024-01-30T05:18:05;10.47;;;5.77;;
8007;SDS011;4049;49.468;11.200;2024-01-30T05:20:32;10.70;;;5.10;;
8007;SDS011;4049;49.468;11.200;2024-01-30T05:22:59;10.13;;;4.93;;
8007;SDS011;4049;49.468;11.200;2024-01-30T05:25:26;9.37;;;5.40;;
8007;SDS011;4049;49.468;11.200;2024-01-30T05:27:52;7.67;;;4.70;;
8007;SDS011;4049;49.468;11.200;2024-01-30T05:30:21;7.53;;;4.47;;
8007;SDS011;4049;49.468;11.200;2024-01-30T05:32:48;8.83;;;5.03;;
8007;SDS011;4049;49.468;11.200;2024-01-30T05:35:15;9.87;;;4.90;;
8007;SDS011;4049;49.468;11.200;2024-01-30T05:37:42;8.37;;;4.60;;
8007;SDS011;4049;49.468;11.200;2024-01-30T05:40:09;9.63;;;5.00;;
8007;SDS011;4049;49.468;11.200;2024-01-30T05:42:37;8.40;;;5.10;;
8007;SDS011;4049;49.468;11.200;2024-01-30T05:45:04;9.70;;;5.17;;
8007;SDS011;4049;49.468;11.200;2024-01-30T05:47:32;8.57;;;5.03;;
8007;SDS011;4049;49.468;11.200;2024-01-30T05:49:59;7.47;;;4.70;;
8007;SDS011;4049;49.468;11.200;2024-01-30T05:52:26;8.40;;;5.27;;
8007;SDS011;4049;49.468;11.200;2024-01-30T05:54:53;7.73;;;4.90;;
8007;SDS011;4049;49.468;11.200;2024-01-30T05:57:20;7.40;;;4.97;;
8007;SDS011;4049;49.468;11.200;2024-01-30T05:59:47;10.23;;;5.10;;
8007;SDS011;4049;49.468;11.200;2024-01-30T06:02:14;9.33;;;5.30;;
8007;SDS011;4049;49.468;11.200;2024-01-30T06:04:42;7.27;;;4.57;;
8007;SDS011;4049;49.468;11.200;2024-01-30T06:07:09;8.13;;;4.77;;
8007;SDS011;4049;49.468;11.200;2024-01-30T06:09:36;8.67;;;4.97;;
8007;SDS011;4049;49.468;11.200;2024-01-30T06:12:03;7.17;;;5.10;;
8007;SDS011;4049;49.468;11.200;2024-01-30T06:14:31;8.13;;;4.67;;
8007;SDS011;4049;49.468;11.200;2024-01-30T06:16:58;10.23;;;5.77;;
8007;SDS011;4049;49.468;11.200;2024-01-30T06:19:25;10.63;;;5.73;;
8007;SDS011;4049;49.468;11.200;2024-01-30T06:21:53;10.80;;;5.50;;
8007;SDS011;4049;49.468;11.200;2024-01-30T06:24:20;11.13;;;5.63;;
8007;SDS011;4049;49.468;11.200;2024-01-30T06:26:47;10.07;;;4.87;;
8007;SDS011;4049;49.468;11.200;2024-01-30T06:29:14;9.20;;;5.27;;
8007;SDS011;4049;49.468;11.200;2024-01-30T06:31:41;9.83;;;5.17;;
8007;SDS011;4049;49.468;11.200;2024-01-30T06:34:08;9.53;;;5.63;;
8007;SDS011;4049;49.468;11.200;2024-01-30T06:36:36;8.67;;;5.47;;
8007;SDS011;4049;49.468;11.200;2024-01-30T06:39:04;15.40;;;5.83;;
8007;SDS011;4049;49.468;11.200;2024-01-30T06:41:32;8.63;;;5.23;;
8007;SDS011;4049;49.468;11.200;2024-01-30T06:43:59;9.60;;;5.40;;
8007;SDS011;4049;49.468;11.200;2024-01-30T06:46:28;8.67;;;5.70;;
8007;SDS011;4049;49.468;11.200;2024-01-30T06:48:54;8.20;;;5.50;;
8007;SDS011;4049;49.468;11.200;2024-01-30T06:51:21;9.37;;;5.60;;
8007;SDS011;4049;49.468;11.200;2024-01-30T06:53:48;11.53;;;5.73;;
8007;SDS011;4049;49.468;11.200;2024-01-30T06:56:16;9.40;;;5.47;;
8007;SDS011;4049;49.468;11.200;2024-01-30T06:58:46;12.30;;;5.67;;
8007;SDS011;4049;49.468;11.200;2024-01-30T07:01:13;8.07;;;5.30;;
8007;SDS011;4049;49.468;11.200;2024-01-30T07:03:40;11.77;;;6.00;;
8007;SDS011;4049;49.468;11.200;2024-01-30T07:06:07;12.57;;;6.23;;
8007;SDS011;4049;49.468;11.200;2024-01-30T07:08:34;12.37;;;6.10;;
8007;SDS011;4049;49.468;11.200;2024-01-30T07:11:01;11.07;;;6.07;;
8007;SDS011;4049;49.468;11.200;2024-01-30T07:13:29;14.63;;;6.80;;
8007;SDS011;4049;49.468;11.200;2024-01-30T07:15:56;10.47;;;5.70;;
8007;SDS011;4049;49.468;11.200;2024-01-30T07:18:22;11.60;;;6.80;;
8007;SDS011;4049;49.468;11.200;2024-01-30T07:20:49;11.90;;;7.13;;
8007;SDS011;4049;49.468;11.200;2024-01-30T07:23:16;10.43;;;6.47;;
8007;SDS011;4049;49.468;11.200;2024-01-30T07:25:43;11.23;;;6.00;;
8007;SDS011;4049;49.468;11.200;2024-01-30T07:28:10;11.93;;;6.80;;
8007;SDS011;4049;49.468;11.200;2024-01-30T07:30:40;12.13;;;7.20;;
8007;SDS011;4049;49.468;11.200;2024-01-30T07:33:07;13.57;;;7.33;;
8007;SDS011;4049;49.468;11.200;2024-01-30T07:35:34;14.33;;;6.80;;
8007;SDS011;4049;49.468;11.200;2024-01-30T07:38:01;12.47;;;7.20;;
8007;SDS011;4049;49.468;11.200;2024-01-30T07:40:28;10.57;;;6.63;;
8007;SDS011;4049;49.468;11.200;2024-01-30T07:42:55;10.00;;;6.40;;
8007;SDS011;4049;49.468;11.200;2024-01-30T07:45:22;12.67;;;6.90;;
8007;SDS011;4049;49.468;11.200;2024-01-30T07:47:51;12.70;;;7.40;;
8007;SDS011;4049;49.468;11.200;2024-01-30T07:50:18;14.17;;;7.93;;
8007;SDS011;4049;49.468;11.200;2024-01-30T07:52:45;12.60;;;7.77;;
8007;SDS011;4049;49.468;11.200;2024-01-30T07:55:16;13.07;;;7.73;;
8007;SDS011;4049;49.468;11.200;2024-01-30T07:57:44;14.10;;;7.60;;
8007;SDS011;4049;49.468;11.200;2024-01-30T08:00:11;13.60;;;7.70;;
8007;SDS011;4049;49.468;11.200;2024-01-30T08:02:39;14.43;;;7.37;;
8007;SDS011;4049;49.468;11.200;2024-01-30T08:05:09;15.03;;;8.23;;
8007;SDS011;4049;49.468;11.200;2024-01-30T08:07:36;13.17;;;8.10;;
8007;SDS011;4049;49.468;11.200;2024-01-30T08:10:03;14.40;;;8.17;;
8007;SDS011;4049;49.468;11.200;2024-01-30T08:12:31;17.43;;;8.33;;
8007;SDS011;4049;49.468;11.200;2024-01-30T08:14:58;12.63;;;8.03;;
8007;SDS011;4049;49.468;11.200;2024-01-30T08:17:24;15.43;;;7.93;;
8007;SDS011;4049;49.468;11.200;2024-01-30T08:19:51;19.17;;;8.90;;
8007;SDS011;4049;49.468;11.200;2024-01-30T08:22:19;14.53;;;8.07;;
8007;SDS011;4049;49.468;11.200;2024-01-30T08:24:46;17.03;;;8.47;;
8007;SDS011;4049;49.468;11.200;2024-01-30T08:27:13;19.73;;;9.67;;
8007;SDS011;4049;49.468;11.200;2024-01-30T08:29:40;17.20;;;9.60;;
8007;SDS011;4049;49.468;11.200;2024-01-30T08:32:07;17.87;;;9.30;;
8007;SDS011;4049;49.468;11.200;2024-01-30T08:34:34;20.77;;;9.80;;
8007;SDS011;4049;49.468;11.200;2024-01-30T08:37:01;22.03;;;11.50;;
8007;SDS011;4049;49.468;11.200;2024-01-30T08:39:29;20.93;;;10.37;;
8007;SDS011;4049;49.468;11.200;2024-01-30T08:41:56;20.53;;;10.83;;
8007;SDS011;4049;49.468;11.200;2024-01-30T08:44:23;21.03;;;10.53;;
8007;SDS011;4049;49.468;11.200;2024-01-30T08:46:50;20.83;;;11.83;;
8007;SDS011;4049;49.468;11.200;2024-01-30T08:49:17;18.73;;;12.27;;
8007;SDS011;4049;49.468;11.200;2024-01-30T08:51:44;25.30;;;13.43;;
8007;SDS011;4049;49.468;11.200;2024-01-30T08:54:11;24.17;;;13.23;;
8007;SDS011;4049;49.468;11.200;2024-01-30T08:56:39;22.33;;;12.90;;
8007;SDS011;4049;49.468;11.200;2024-01-30T08:59:06;20.40;;;11.73;;
8007;SDS011;4049;49.468;11.200;2024-01-30T09:01:33;19.97;;;12.37;;
8007;SDS011;4049;49.468;11.200;2024-01-30T09:04:00;19.20;;;11.00;;
8007;SDS011;4049;49.468;11.200;2024-01-30T09:06:27;23.03;;;13.47;;
8007;SDS011;4049;49.468;11.200;2024-01-30T09:08:54;23.90;;;12.50;;
8007;SDS011;4049;49.468;11.200;2024-01-30T09:11:23;21.90;;;12.40;;
8007;SDS011;4049;49.468;11.200;2024-01-30T09:13:51;23.13;;;12.40;;
8007;SDS011;4049;49.468;11.200;2024-01-30T09:16:18;24.40;;;14.20;;
8007;SDS011;4049;49.468;11.200;2024-01-30T09:18:45;27.30;;;15.30;;
8007;SDS011;4049;49.468;11.200;2024-01-30T09:21:12;31.50;;;16.03;;
8007;SDS011;4049;49.468;11.200;2024-01-30T09:23:39;28.03;;;15.40;;
8007;SDS011;4049;49.468;11.200;2024-01-30T09:26:05;26.97;;;14.13;;
8007;SDS011;4049;49.468;11.200;2024-01-30T09:28:32;25.83;;;14.07;;
8007;SDS011;4049;49.468;11.200;2024-01-30T09:31:02;23.50;;;13.93;;
8007;SDS011;4049;49.468;11.200;2024-01-30T09:33:29;24.33;;;14.53;;
8007;SDS011;4049;49.468;11.200;2024-01-30T09:35:56;26.10;;;13.87;;
8007;SDS011;4049;49.468;11.200;2024-01-30T09:38:23;26.37;;;15.87;;
8007;SDS011;4049;49.468;11.200;2024-01-30T09:40:50;26.00;;;15.20;;
8007;SDS011;4049;49.468;11.200;2024-01-30T09:43:22;21.80;;;13.50;;
8007;SDS011;4049;49.468;11.200;2024-01-30T09:45:49;25.47;;;14.33;;
8007;SDS011;4049;49.468;11.200;2024-01-30T09:48:18;20.00;;;13.03;;
8007;SDS011;4049;49.468;11.200;2024-01-30T09:50:45;23.93;;;13.77;;
8007;SDS011;4049;49.468;11.200;2024-01-30T09:53:12;25.77;;;13.77;;
8007;SDS011;4049;49.468;11.200;2024-01-30T09:55:40;22.53;;;13.37;;
8007;SDS011;4049;49.468;11.200;2024-01-30T09:58:09;23.97;;;13.83;;
8007;SDS011;4049;49.468;11.200;2024-01-30T10:00:38;23.73;;;13.73;;
8007;SDS011;4049;49.468;11.200;2024-01-30T10:03:04;23.40;;;14.30;;
8007;SDS011;4049;49.468;11.200;2024-01-30T10:05:32;22.67;;;13.87;;
8007;SDS011;4049;49.468;11.200;2024-01-30T10:08:05;22.40;;;12.77;;
8007;SDS011;4049;49.468;11.200;2024-01-30T10:10:33;22.93;;;14.10;;
8007;SDS011;4049;49.468;11.200;2024-01-30T10:13:00;21.00;;;13.53;;
8007;SDS011;4049;49.468;11.200;2024-01-30T10:15:27;23.73;;;13.93;;
8007;SDS011;4049;49.468;11.200;2024-01-30T10:17:55;25.70;;;13.93;;
8007;SDS011;4049;49.468;11.200;2024-01-30T10:20:22;23.93;;;14.10;;
8007;SDS011;4049;49.468;11.200;2024-01-30T10:22:55;23.57;;;14.33;;
8007;SDS011;4049;49.468;11.200;2024-01-30T10:25:23;22.93;;;13.93;;
8007;SDS011;4049;49.468;11.200;2024-01-30T10:27:52;26.83;;;14.43;;
8007;SDS011;4049;49.468;11.200;2024-01-30T10:30:20;22.43;;;12.70;;
8007;SDS011;4049;49.468;11.200;2024-01-30T10:32:47;23.17;;;13.37;;
8007;SDS011;4049;49.468;11.200;2024-01-30T10:35:15;28.73;;;15.00;;
8007;SDS011;4049;49.468;11.200;2024-01-30T10:37:44;26.73;;;14.90;;
8007;SDS011;4049;49.468;11.200;2024-01-30T10:40:14;23.17;;;13.97;;
8007;SDS011;4049;49.468;11.200;2024-01-30T10:42:42;24.57;;;14.83;;
8007;SDS011;4049;49.468;11.200;2024-01-30T10:45:10;26.97;;;15.33;;
8007;SDS011;4049;49.468;11.200;2024-01-30T10:47:39;27.70;;;16.33;;
8007;SDS011;4049;49.468;11.200;2024-01-30T10:50:07;28.37;;;15.13;;
8007;SDS011;4049;49.468;11.200;2024-01-30T10:52:35;26.83;;;14.60;;
8007;SDS011;4049;49.468;11.200;2024-01-30T10:55:04;25.63;;;14.30;;
8007;SDS011;4049;49.468;11.200;2024-01-30T10:57:33;26.30;;;15.00;;
8007;SDS011;4049;49.468;11.200;2024-01-30T11:00:01;25.73;;;15.10;;
8007;SDS011;4049;49.468;11.200;2024-01-30T11:02:35;22.13;;;13.47;;
8007;SDS011;4049;49.468;11.200;2024-01-30T11:05:04;22.53;;;13.37;;
8007;SDS011;4049;49.468;11.200;2024-01-30T11:07:31;25.03;;;15.20;;
8007;SDS011;4049;49.468;11.200;2024-01-30T11:09:59;24.27;;;13.60;;
8007;SDS011;4049;49.468;11.200;2024-01-30T11:12:28;27.70;;;14.07;;
8007;SDS011;4049;49.468;11.200;2024-01-30T11:15:06;28.20;;;15.43;;
8007;SDS011;4049;49.468;11.200;2024-01-30T11:17:41;25.70;;;15.33;;
8007;SDS011;4049;49.468;11.200;2024-01-30T11:20:09;28.73;;;16.23;;
8007;SDS011;4049;49.468;11.200;2024-01-30T11:22:40;35.77;;;16.50;;
8007;SDS011;4049;49.468;11.200;2024-01-30T11:25:10;34.00;;;17.03;;
8007;SDS011;4049;49.468;11.200;2024-01-30T11:27:38;37.63;;;17.97;;
8007;SDS011;4049;49.468;11.200;2024-01-30T11:30:07;51.20;;;18.97;;
8007;SDS011;4049;49.468;11.200;2024-01-30T11:32:34;41.57;;;18.93;;
8007;SDS011;4049;49.468;11.200;2024-01-30T11:35:03;43.77;;;18.93;;
8007;SDS011;4049;49.468;11.200;2024-01-30T11:37:31;43.70;;;17.83;;
8007;SDS011;4049;49.468;11.200;2024-01-30T11:40:03;37.27;;;16.60;;
8007;SDS011;4049;49.468;11.200;2024-01-30T11:42:31;36.77;;;16.60;;
8007;SDS011;4049;49.468;11.200;2024-01-30T11:44:59;31.63;;;15.93;;
8007;SDS011;4049;49.468;11.200;2024-01-30T11:47:28;29.73;;;15.53;;
8007;SDS011;4049;49.468;11.200;2024-01-30T11:49:55;25.97;;;14.47;;
8007;SDS011;4049;49.468;11.200;2024-01-30T11:52:23;23.17;;;14.63;;
8007;SDS011;4049;49.468;11.200;2024-01-30T11:54:50;26.77;;;15.23;;
8007;SDS011;4049;49.468;11.200;2024-01-30T11:57:17;24.17;;;14.00;;
8007;SDS011;4049;49.468;11.200;2024-01-30T11:59:44;23.17;;;13.77;;
8007;SDS011;4049;49.468;11.200;2024-01-30T12:02:15;20.73;;;13.17;;
8007;SDS011;4049;49.468;11.200;2024-01-30T12:04:44;23.43;;;13.70;;
8007;SDS011;4049;49.468;11.200;2024-01-30T12:07:11;23.23;;;13.63;;
8007;SDS011;4049;49.468;11.200;2024-01-30T12:09:40;24.53;;;13.07;;
8007;SDS011;4049;49.468;11.200;2024-01-30T12:12:07;22.77;;;13.47;;
8007;SDS011;4049;49.468;11.200;2024-01-30T12:14:37;22.97;;;13.17;;
8007;SDS011;4049;49.468;11.200;2024-01-30T12:17:05;21.20;;;13.10;;
8007;SDS011;4049;49.468;11.200;2024-01-30T12:19:32;23.83;;;13.83;;
8007;SDS011;4049;49.468;11.200;2024-01-30T12:22:01;23.27;;;12.90;;
8007;SDS011;4049;49.468;11.200;2024-01-30T12:24:27;21.73;;;13.17;;
8007;SDS011;4049;49.468;11.200;2024-01-30T12:26:56;23.80;;;14.20;;
8007;SDS011;4049;49.468;11.200;2024-01-30T12:29:23;23.33;;;13.90;;
8007;SDS011;4049;49.468;11.200;2024-01-30T12:31:52;28.70;;;13.97;;
8007;SDS011;4049;49.468;11.200;2024-01-30T12:34:20;25.60;;;13.93;;
8007;SDS011;4049;49.468;11.200;2024-01-30T12:36:47;23.83;;;15.17;;
8007;SDS011;4049;49.468;11.200;2024-01-30T12:39:16;28.07;;;14.67;;
8007;SDS011;4049;49.468;11.200;2024-01-30T12:41:43;28.33;;;15.10;;
8007;SDS011;4049;49.468;11.200;2024-01-30T12:44:10;23.67;;;14.57;;
8007;SDS011;4049;49.468;11.200;2024-01-30T12:46:39;26.03;;;13.77;;
8007;SDS011;4049;49.468;11.200;2024-01-30T12:49:06;25.93;;;13.43;;
8007;SDS011;4049;49.468;11.200;2024-01-30T12:51:33;23.80;;;14.10;;
8007;SDS011;4049;49.468;11.200;2024-01-30T12:54:04;25.97;;;13.37;;
8007;SDS011;4049;49.468;11.200;2024-01-30T12:56:32;27.03;;;12.90;;
8007;SDS011;4049;49.468;11.200;2024-01-30T12:58:59;23.03;;;13.13;;
8007;SDS011;4049;49.468;11.200;2024-01-30T13:01:26;26.00;;;13.50;;
8007;SDS011;4049;49.468;11.200;2024-01-30T13:03:56;25.77;;;13.47;;
8007;SDS011;4049;49.468;11.200;2024-01-30T13:06:23;24.17;;;13.53;;
8007;SDS011;4049;49.468;11.200;2024-01-30T13:08:50;18.33;;;11.77;;
8007;SDS011;4049;49.468;11.200;2024-01-30T13:11:20;21.73;;;12.50;;
8007;SDS011;4049;49.468;11.200;2024-01-30T13:13:48;27.00;;;13.50;;
8007;SDS011;4049;49.468;11.200;2024-01-30T13:16:15;23.00;;;13.17;;
8007;SDS011;4049;49.468;11.200;2024-01-30T13:18:42;22.80;;;13.40;;
8007;SDS011;4049;49.468;11.200;2024-01-30T13:21:09;20.03;;;12.63;;
8007;SDS011;4049;49.468;11.200;2024-01-30T13:23:36;18.57;;;12.20;;
8007;SDS011;4049;49.468;11.200;2024-01-30T13:26:03;20.60;;;12.07;;
8007;SDS011;4049;49.468;11.200;2024-01-30T13:28:31;18.40;;;11.97;;
8007;SDS011;4049;49.468;11.200;2024-01-30T13:30:59;19.93;;;12.83;;
8007;SDS011;4049;49.468;11.200;2024-01-30T13:33:26;21.70;;;12.50;;
8007;SDS011;4049;49.468;11.200;2024-01-30T13:35:53;17.87;;;12.17;;
8007;SDS011;4049;49.468;11.200;2024-01-30T13:38:22;18.83;;;11.03;;
8007;SDS011;4049;49.468;11.200;2024-01-30T13:40:49;21.63;;;12.20;;
8007;SDS011;4049;49.468;11.200;2024-01-30T13:43:16;20.90;;;12.57;;
8007;SDS011;4049;49.468;11.200;2024-01-30T13:45:43;20.77;;;13.13;;
8007;SDS011;4049;49.468;11.200;2024-01-30T13:48:12;20.63;;;11.60;;
8007;SDS011;4049;49.468;11.200;2024-01-30T13:50:39;17.47;;;11.17;;
8007;SDS011;4049;49.468;11.200;2024-01-30T13:53:06;17.50;;;11.43;;
8007;SDS011;4049;49.468;11.200;2024-01-30T13:55:33;20.60;;;11.80;;
8007;SDS011;4049;49.468;11.200;2024-01-30T13:58:00;18.63;;;11.77;;
8007;SDS011;4049;49.468;11.200;2024-01-30T14:00:27;18.20;;;11.17;;
8007;SDS011;4049;49.468;11.200;2024-01-30T14:02:54;25.83;;;10.93;;
8007;SDS011;4049;49.468;11.200;2024-01-30T14:05:24;17.33;;;10.73;;
8007;SDS011;4049;49.468;11.200;2024-01-30T14:07:51;16.93;;;10.60;;
8007;SDS011;4049;49.468;11.200;2024-01-30T14:10:18;18.37;;;11.50;;
8007;SDS011;4049;49.468;11.200;2024-01-30T14:12:45;21.53;;;11.03;;
8007;SDS011;4049;49.468;11.200;2024-01-30T14:15:13;16.70;;;10.33;;
8007;SDS011;4049;49.468;11.200;2024-01-30T14:17:42;11.60;;;8.00;;
8007;SDS011;4049;49.468;11.200;2024-01-30T14:20:10;14.60;;;8.57;;
8007;SDS011;4049;49.468;11.200;2024-01-30T14:22:38;13.13;;;8.27;;
8007;SDS011;4049;49.468;11.200;2024-01-30T14:25:06;15.13;;;8.03;;
8007;SDS011;4049;49.468;11.200;2024-01-30T14:27:34;10.97;;;7.37;;
8007;SDS011;4049;49.468;11.200;2024-01-30T14:30:01;11.80;;;8.47;;
8007;SDS011;4049;49.468;11.200;2024-01-30T14:32:29;14.77;;;7.80;;
8007;SDS011;4049;49.468;11.200;2024-01-30T14:34:55;12.17;;;7.43;;
8007;SDS011;4049;49.468;11.200;2024-01-30T14:37:22;11.10;;;7.87;;
8007;SDS011;4049;49.468;11.200;2024-01-30T14:39:51;12.87;;;8.00;;
8007;SDS011;4049;49.468;11.200;2024-01-30T14:42:19;13.23;;;8.13;;
8007;SDS011;4049;49.468;11.200;2024-01-30T14:44:46;11.03;;;8.07;;
8007;SDS011;4049;49.468;11.200;2024-01-30T14:47:14;11.07;;;8.27;;